sensor_id;sensor_type;location;lat;lon;timestamp;pressure;altitude;pressure_sealevel;temperature
29549;BMP280;16487;53.094;8.800;2024-01-30T00:02:12;102670.28;;;5.59
29549;BMP280;16487;53.094;8.800;2024-01-30T00:04:39;102668.25;;;5.61
29549;BMP280;16487;53.094;8.800;2024-01-30T00:07:07;102666.94;;;5.57
29549;BMP280;16487;53.094;8.800;2024-01-30T00:09:33;102665.66;;;5.53
29549;BMP280;16487;53.094;8.800;2024-01-30T00:12:00;102664.47;;;5.55
29549;BMP280;16487;53.094;8.800;2024-01-30T00:14:26;102666.22;;;5.48
29549;BMP280;16487;53.094;8.800;2024-01-30T00:16:53;102667.31;;;5.54
29549;BMP280;16487;53.094;8.800;2024-01-30T00:19:19;102668.56;;;5.51
29549;BMP280;16487;53.094;8.800;2024-01-30T00:21:46;102661.69;;;5.48
29549;BMP280;16487;53.094;8.800;2024-01-30T00:24:14;102663.91;;;5.45
29549;BMP280;16487;53.094;8.800;2024-01-30T00:26:41;102668.91;;;5.48
29549;BMP280;16487;53.094;8.800;2024-01-30T00:29:07;102662.63;;;5.41
29549;BMP280;16487;53.094;8.800;2024-01-30T00:31:34;102652.41;;;5.44
29549;BMP280;16487;53.094;8.800;2024-01-30T00:34:05;102654.53;;;5.49
29549;BMP280;16487;53.094;8.800;2024-01-30T00:36:32;102652.50;;;5.51
29549;BMP280;16487;53.094;8.800;2024-01-30T00:38:58;102665.31;;;5.56
29549;BMP280;16487;53.094;8.800;2024-01-30T00:41:26;102662.97;;;5.53
29549;BMP280;16487;53.094;8.800;2024-01-30T00:43:53;102666.88;;;5.50
29549;BMP280;16487;53.094;8.800;2024-01-30T00:46:19;102660.69;;;5.50
29549;BMP280;16487;53.094;8.800;2024-01-30T00:48:46;102660.59;;;5.58
29549;BMP280;16487;53.094;8.800;2024-01-30T00:51:13;102660.91;;;5.63
29549;BMP280;16487;53.094;8.800;2024-01-30T00:53:39;102662.63;;;5.56
29549;BMP280;16487;53.094;8.800;2024-01-30T00:56:06;102658.09;;;5.56
29549;BMP280;16487;53.094;8.800;2024-01-30T00:58:34;102661.25;;;5.60
29549;BMP280;16487;53.094;8.800;2024-01-30T01:01:00;102650.91;;;5.57
29549;BMP280;16487;53.094;8.800;2024-01-30T01:03:27;102655.63;;;5.55
29549;BMP280;16487;53.094;8.800;2024-01-30T01:05:55;102651.09;;;5.55
29549;BMP280;16487;53.094;8.800;2024-01-30T01:08:22;102652.09;;;5.54
29549;BMP280;16487;53.094;8.800;2024-01-30T01:10:48;102647.41;;;5.56
29549;BMP280;16487;53.094;8.800;2024-01-30T01:13:17;102656.25;;;5.57
29549;BMP280;16487;53.094;8.800;2024-01-30T01:15:46;102653.41;;;5.58
29549;BMP280;16487;53.094;8.800;2024-01-30T01:18:13;102648.41;;;5.55
29549;BMP280;16487;53.094;8.800;2024-01-30T01:20:39;102641.88;;;5.58
29549;BMP280;16487;53.094;8.800;2024-01-30T01:23:06;102642.88;;;5.57
29549;BMP280;16487;53.094;8.800;2024-01-30T01:25:33;102639.19;;;5.58
29549;BMP280;16487;53.094;8.800;2024-01-30T01:28:00;102631.72;;;5.53
29549;BMP280;16487;53.094;8.800;2024-01-30T01:30:27;102631.94;;;5.52
29549;BMP280;16487;53.094;8.800;2024-01-30T01:32:55;102638.84;;;5.61
29549;BMP280;16487;53.094;8.800;2024-01-30T01:35:22;102630.16;;;5.59
29549;BMP280;16487;53.094;8.800;2024-01-30T01:37:49;102628.34;;;5.59
29549;BMP280;16487;53.094;8.800;2024-01-30T01:40:15;102616.78;;;5.59
29549;BMP280;16487;53.094;8.800;2024-01-30T01:42:42;102616.44;;;5.62
29549;BMP280;16487;53.094;8.800;2024-01-30T01:45:09;102618.94;;;5.63
29549;BMP280;16487;53.094;8.800;2024-01-30T01:47:35;102609.25;;;5.62
29549;BMP280;16487;53.094;8.800;2024-01-30T01:50:04;102609.69;;;5.66
29549;BMP280;16487;53.094;8.800;2024-01-30T01:52:32;102611.44;;;5.74
29549;BMP280;16487;53.094;8.800;2024-01-30T01:54:59;102622.44;;;5.64
29549;BMP280;16487;53.094;8.800;2024-01-30T01:57:26;102616.44;;;5.62
29549;BMP280;16487;53.094;8.800;2024-01-30T01:59:52;102614.97;;;5.59
29549;BMP280;16487;53.094;8.800;2024-01-30T02:02:19;102615.97;;;5.58
29549;BMP280;16487;53.094;8.800;2024-01-30T02:04:47;102613.84;;;5.54
29549;BMP280;16487;53.094;8.800;2024-01-30T02:07:15;102608.97;;;5.57
29549;BMP280;16487;53.094;8.800;2024-01-30T02:09:41;102605.28;;;5.58
29549;BMP280;16487;53.094;8.800;2024-01-30T02:12:08;102598.47;;;5.56
29549;BMP280;16487;53.094;8.800;2024-01-30T02:14:44;102601.88;;;5.64
29549;BMP280;16487;53.094;8.800;2024-01-30T02:17:10;102597.34;;;5.65
29549;BMP280;16487;53.094;8.800;2024-01-30T02:19:40;102596.59;;;5.56
29549;BMP280;16487;53.094;8.800;2024-01-30T02:22:08;102594.94;;;5.55
29549;BMP280;16487;53.094;8.800;2024-01-30T02:24:35;102579.75;;;5.56
29549;BMP280;16487;53.094;8.800;2024-01-30T02:27:02;102585.09;;;5.56
29549;BMP280;16487;53.094;8.800;2024-01-30T02:29:29;102583.03;;;5.58
29549;BMP280;16487;53.094;8.800;2024-01-30T02:31:55;102574.66;;;5.61
29549;BMP280;16487;53.094;8.800;2024-01-30T02:34:22;102577.88;;;5.56
29549;BMP280;16487;53.094;8.800;2024-01-30T02:36:48;102565.72;;;5.54
29549;BMP280;16487;53.094;8.800;2024-01-30T02:39:16;102566.72;;;5.53
29549;BMP280;16487;53.094;8.800;2024-01-30T02:41:43;102565.47;;;5.48
29549;BMP280;16487;53.094;8.800;2024-01-30T02:44:09;102554.94;;;5.47
29549;BMP280;16487;53.094;8.800;2024-01-30T02:46:36;102554.59;;;5.50
29549;BMP280;16487;53.094;8.800;2024-01-30T02:49:02;102552.09;;;5.48
29549;BMP280;16487;53.094;8.800;2024-01-30T02:51:29;102551.28;;;5.48
29549;BMP280;16487;53.094;8.800;2024-01-30T02:53:55;102554.94;;;5.47
29549;BMP280;16487;53.094;8.800;2024-01-30T02:56:23;102555.84;;;5.54
29549;BMP280;16487;53.094;8.800;2024-01-30T02:58:50;102545.47;;;5.44
29549;BMP280;16487;53.094;8.800;2024-01-30T03:01:16;102543.81;;;5.43
29549;BMP280;16487;53.094;8.800;2024-01-30T03:03:43;102550.78;;;5.59
29549;BMP280;16487;53.094;8.800;2024-01-30T03:06:10;102549.78;;;5.60
29549;BMP280;16487;53.094;8.800;2024-01-30T03:08:36;102544.44;;;5.60
29549;BMP280;16487;53.094;8.800;2024-01-30T03:11:03;102543.78;;;5.58
29549;BMP280;16487;53.094;8.800;2024-01-30T03:13:31;102543.78;;;5.58
29549;BMP280;16487;53.094;8.800;2024-01-30T03:15:58;102538.59;;;5.57
29549;BMP280;16487;53.094;8.800;2024-01-30T03:18:24;102542.59;;;5.46
29549;BMP280;16487;53.094;8.800;2024-01-30T03:20:51;102526.41;;;5.47
29549;BMP280;16487;53.094;8.800;2024-01-30T03:23:17;102527.88;;;5.50
29549;BMP280;16487;53.094;8.800;2024-01-30T03:25:44;102529.53;;;5.51
29549;BMP280;16487;53.094;8.800;2024-01-30T03:28:11;102533.84;;;5.52
29549;BMP280;16487;53.094;8.800;2024-01-30T03:33:24;102525.56;;;5.47
29549;BMP280;16487;53.094;8.800;2024-01-30T03:35:50;102526.56;;;5.46
29549;BMP280;16487;53.094;8.800;2024-01-30T03:38:17;102536.97;;;5.56
29549;BMP280;16487;53.094;8.800;2024-01-30T03:40:44;102532.19;;;5.51
29549;BMP280;16487;53.094;8.800;2024-01-30T03:43:10;102525.19;;;5.50
29549;BMP280;16487;53.094;8.800;2024-01-30T03:45:37;102526.44;;;5.54
29549;BMP280;16487;53.094;8.800;2024-01-30T03:48:04;102532.53;;;5.63
29549;BMP280;16487;53.094;8.800;2024-01-30T03:50:32;102524.06;;;5.59
29549;BMP280;16487;53.094;8.800;2024-01-30T03:52:59;102521.94;;;5.55
29549;BMP280;16487;53.094;8.800;2024-01-30T03:55:26;102525.97;;;5.66
29549;BMP280;16487;53.094;8.800;2024-01-30T03:57:53;102523.50;;;5.64
29549;BMP280;16487;53.094;8.800;2024-01-30T04:00:19;102527.00;;;5.64
29549;BMP280;16487;53.094;8.800;2024-01-30T04:02:48;102525.78;;;5.67
29549;BMP280;16487;53.094;8.800;2024-01-30T04:05:15;102523.75;;;5.69
29549;BMP280;16487;53.094;8.800;2024-01-30T04:07:43;102524.97;;;5.67
29549;BMP280;16487;53.094;8.800;2024-01-30T04:10:10;102522.06;;;5.68
29549;BMP280;16487;53.094;8.800;2024-01-30T04:12:36;102526.13;;;5.79
29549;BMP280;16487;53.094;8.800;2024-01-30T04:15:04;102526.13;;;5.79
29549;BMP280;16487;53.094;8.800;2024-01-30T04:17:30;102526.97;;;5.79
29549;BMP280;16487;53.094;8.800;2024-01-30T04:19:57;102529.25;;;5.83
29549;BMP280;16487;53.094;8.800;2024-01-30T04:22:24;102529.06;;;5.84
29549;BMP280;16487;53.094;8.800;2024-01-30T04:24:52;102526.38;;;5.84
29549;BMP280;16487;53.094;8.800;2024-01-30T04:27:18;102523.25;;;5.80
29549;BMP280;16487;53.094;8.800;2024-01-30T04:29:45;102523.63;;;5.77
29549;BMP280;16487;53.094;8.800;2024-01-30T04:32:12;102516.44;;;5.78
29549;BMP280;16487;53.094;8.800;2024-01-30T04:34:38;102519.03;;;5.71
29549;BMP280;16487;53.094;8.800;2024-01-30T04:37:05;102505.84;;;5.70
29549;BMP280;16487;53.094;8.800;2024-01-30T04:39:32;102513.50;;;5.73
29549;BMP280;16487;53.094;8.800;2024-01-30T04:42:00;102510.81;;;5.73
29549;BMP280;16487;53.094;8.800;2024-01-30T04:44:27;102511.63;;;5.73
29549;BMP280;16487;53.094;8.800;2024-01-30T04:46:53;102508.97;;;5.73
29549;BMP280;16487;53.094;8.800;2024-01-30T04:49:20;102504.47;;;5.74
29549;BMP280;16487;53.094;8.800;2024-01-30T04:51:47;102502.25;;;5.77
29549;BMP280;16487;53.094;8.800;2024-01-30T04:54:13;102504.66;;;5.72
29549;BMP280;16487;53.094;8.800;2024-01-30T04:56:40;102505.94;;;5.76
29549;BMP280;16487;53.094;8.800;2024-01-30T04:59:08;102503.91;;;5.78
29549;BMP280;16487;53.094;8.800;2024-01-30T05:01:34;102504.72;;;5.79
29549;BMP280;16487;53.094;8.800;2024-01-30T05:04:01;102505.13;;;5.76
29549;BMP280;16487;53.094;8.800;2024-01-30T05:06:28;102505.28;;;5.74
29549;BMP280;16487;53.094;8.800;2024-01-30T05:08:55;102503.44;;;5.75
29549;BMP280;16487;53.094;8.800;2024-01-30T05:11:22;102491.09;;;5.74
29549;BMP280;16487;53.094;8.800;2024-01-30T05:13:48;102487.31;;;5.68
29549;BMP280;16487;53.094;8.800;2024-01-30T05:16:16;102486.25;;;5.62
29549;BMP280;16487;53.094;8.800;2024-01-30T05:18:43;102491.78;;;5.61
29549;BMP280;16487;53.094;8.800;2024-01-30T05:21:10;102491.97;;;5.59
29549;BMP280;16487;53.094;8.800;2024-01-30T05:23:37;102490.31;;;5.58
29549;BMP280;16487;53.094;8.800;2024-01-30T05:26:03;102487.81;;;5.57
29549;BMP280;16487;53.094;8.800;2024-01-30T05:28:30;102481.13;;;5.46
29549;BMP280;16487;53.094;8.800;2024-01-30T05:30:57;102490.53;;;5.42
29549;BMP280;16487;53.094;8.800;2024-01-30T05:33:25;102488.38;;;5.52
29549;BMP280;16487;53.094;8.800;2024-01-30T05:35:52;102491.81;;;5.46
29549;BMP280;16487;53.094;8.800;2024-01-30T05:38:18;102490.25;;;5.52
29549;BMP280;16487;53.094;8.800;2024-01-30T05:40:45;102490.88;;;5.54
29549;BMP280;16487;53.094;8.800;2024-01-30T05:43:12;102484.25;;;5.50
29549;BMP280;16487;53.094;8.800;2024-01-30T05:45:38;102486.84;;;5.43
29549;BMP280;16487;53.094;8.800;2024-01-30T05:48:05;102484.72;;;5.38
29549;BMP280;16487;53.094;8.800;2024-01-30T05:50:33;102486.84;;;5.43
29549;BMP280;16487;53.094;8.800;2024-01-30T05:53:00;102483.31;;;5.42
29549;BMP280;16487;53.094;8.800;2024-01-30T05:55:26;102488.66;;;5.42
29549;BMP280;16487;53.094;8.800;2024-01-30T05:57:53;102489.59;;;5.50
29549;BMP280;16487;53.094;8.800;2024-01-30T06:00:20;102492.53;;;5.55
29549;BMP280;16487;53.094;8.800;2024-01-30T06:02:46;102491.88;;;5.53
29549;BMP280;16487;53.094;8.800;2024-01-30T06:05:13;102496.41;;;5.52
29549;BMP280;16487;53.094;8.800;2024-01-30T06:07:41;102493.94;;;5.51
29549;BMP280;16487;53.094;8.800;2024-01-30T06:10:08;102494.56;;;5.53
29549;BMP280;16487;53.094;8.800;2024-01-30T06:12:35;102496.34;;;5.45
29549;BMP280;16487;53.094;8.800;2024-01-30T06:15:02;102513.06;;;5.54
29549;BMP280;16487;53.094;8.800;2024-01-30T06:17:28;102508.19;;;5.58
29549;BMP280;16487;53.094;8.800;2024-01-30T06:19:55;102502.84;;;5.58
29549;BMP280;16487;53.094;8.800;2024-01-30T06:22:22;102501.47;;;5.62
29549;BMP280;16487;53.094;8.800;2024-01-30T06:24:50;102494.09;;;5.64
29549;BMP280;16487;53.094;8.800;2024-01-30T06:27:16;102494.09;;;5.64
29549;BMP280;16487;53.094;8.800;2024-01-30T06:29:43;102488.34;;;5.67
29549;BMP280;16487;53.094;8.800;2024-01-30T06:32:10;102489.75;;;5.63
29549;BMP280;16487;53.094;8.800;2024-01-30T06:34:36;102499.59;;;5.62
29549;BMP280;16487;53.094;8.800;2024-01-30T06:37:03;102485.22;;;5.63
29549;BMP280;16487;53.094;8.800;2024-01-30T06:39:30;102485.97;;;5.57
29549;BMP280;16487;53.094;8.800;2024-01-30T06:41:57;102487.19;;;5.55
29549;BMP280;16487;53.094;8.800;2024-01-30T06:44:24;102476.66;;;5.53
29549;BMP280;16487;53.094;8.800;2024-01-30T06:46:50;102482.22;;;5.52
29549;BMP280;16487;53.094;8.800;2024-01-30T06:49:17;102480.31;;;5.45
29549;BMP280;16487;53.094;8.800;2024-01-30T06:51:44;102485.25;;;5.48
29549;BMP280;16487;53.094;8.800;2024-01-30T06:54:10;102481.97;;;5.46
29549;BMP280;16487;53.094;8.800;2024-01-30T06:56:37;102478.91;;;5.50
29549;BMP280;16487;53.094;8.800;2024-01-30T06:59:04;102474.94;;;5.45
29549;BMP280;16487;53.094;8.800;2024-01-30T07:01:31;102482.59;;;5.48
29549;BMP280;16487;53.094;8.800;2024-01-30T07:03:58;102482.59;;;5.48
29549;BMP280;16487;53.094;8.800;2024-01-30T07:06:25;102473.56;;;5.50
29549;BMP280;16487;53.094;8.800;2024-01-30T07:08:52;102469.41;;;5.47
29549;BMP280;16487;53.094;8.800;2024-01-30T07:11:18;102476.06;;;5.51
29549;BMP280;16487;53.094;8.800;2024-01-30T07:13:45;102481.63;;;5.56
29549;BMP280;16487;53.094;8.800;2024-01-30T07:16:13;102474.06;;;5.60
29549;BMP280;16487;53.094;8.800;2024-01-30T07:18:40;102489.75;;;5.63
29549;BMP280;16487;53.094;8.800;2024-01-30T07:21:06;102479.06;;;5.63
29549;BMP280;16487;53.094;8.800;2024-01-30T07:23:33;102477.41;;;5.62
29549;BMP280;16487;53.094;8.800;2024-01-30T07:25:59;102473.06;;;5.61
29549;BMP280;16487;53.094;8.800;2024-01-30T07:28:26;102471.03;;;5.63
29549;BMP280;16487;53.094;8.800;2024-01-30T07:30:53;102477.00;;;5.65
29549;BMP280;16487;53.094;8.800;2024-01-30T07:33:21;102478.22;;;5.62
29549;BMP280;16487;53.094;8.800;2024-01-30T07:35:48;102476.56;;;5.61
29549;BMP280;16487;53.094;8.800;2024-01-30T07:38:14;102465.50;;;5.64
29549;BMP280;16487;53.094;8.800;2024-01-30T07:40:41;102464.28;;;5.67
29549;BMP280;16487;53.094;8.800;2024-01-30T07:43:08;102457.28;;;5.66
29549;BMP280;16487;53.094;8.800;2024-01-30T07:45:34;102457.91;;;5.68
29549;BMP280;16487;53.094;8.800;2024-01-30T07:48:01;102444.16;;;5.71
29549;BMP280;16487;53.094;8.800;2024-01-30T07:50:29;102456.78;;;5.77
29549;BMP280;16487;53.094;8.800;2024-01-30T07:52:56;102450.03;;;5.82
29549;BMP280;16487;53.094;8.800;2024-01-30T07:55:23;102449.63;;;5.85
29549;BMP280;16487;53.094;8.800;2024-01-30T07:57:52;102452.19;;;5.93
29549;BMP280;16487;53.094;8.800;2024-01-30T08:00:19;102457.38;;;6.01
29549;BMP280;16487;53.094;8.800;2024-01-30T08:02:45;102457.38;;;6.01
29549;BMP280;16487;53.094;8.800;2024-01-30T08:05:12;102454.34;;;6.04
29549;BMP280;16487;53.094;8.800;2024-01-30T08:07:40;102457.47;;;6.08
29549;BMP280;16487;53.094;8.800;2024-01-30T08:10:07;102461.47;;;6.19
29549;BMP280;16487;53.094;8.800;2024-01-30T08:12:34;102476.59;;;6.33
29549;BMP280;16487;53.094;8.800;2024-01-30T08:15:00;102469.22;;;6.42
29549;BMP280;16487;53.094;8.800;2024-01-30T08:17:27;102476.50;;;6.48
29549;BMP280;16487;53.094;8.800;2024-01-30T08:19:53;102475.03;;;6.45
29549;BMP280;16487;53.094;8.800;2024-01-30T08:22:20;102475.50;;;6.56
29549;BMP280;16487;53.094;8.800;2024-01-30T08:24:48;102472.41;;;6.52
29549;BMP280;16487;53.094;8.800;2024-01-30T08:27:16;102467.09;;;6.59
29549;BMP280;16487;53.094;8.800;2024-01-30T08:29:42;102476.19;;;6.65
29549;BMP280;16487;53.094;8.800;2024-01-30T08:32:09;102474.56;;;6.70
29549;BMP280;16487;53.094;8.800;2024-01-30T08:34:35;102479.91;;;6.70
29549;BMP280;16487;53.094;8.800;2024-01-30T08:37:03;102485.13;;;6.78
29549;BMP280;16487;53.094;8.800;2024-01-30T08:39:29;102487.19;;;6.83
29549;BMP280;16487;53.094;8.800;2024-01-30T08:41:57;102485.88;;;7.01
29549;BMP280;16487;53.094;8.800;2024-01-30T08:44:24;102485.91;;;7.07
29549;BMP280;16487;53.094;8.800;2024-01-30T08:46:50;102486.50;;;7.09
29549;BMP280;16487;53.094;8.800;2024-01-30T08:49:17;102480.50;;;7.01
29549;BMP280;16487;53.094;8.800;2024-01-30T08:51:44;102484.50;;;7.18
29549;BMP280;16487;53.094;8.800;2024-01-30T08:54:10;102485.16;;;7.20
29549;BMP280;16487;53.094;8.800;2024-01-30T08:56:37;102484.94;;;7.28
29549;BMP280;16487;53.094;8.800;2024-01-30T08:59:05;102485.56;;;7.24
29549;BMP280;16487;53.094;8.800;2024-01-30T09:01:31;102483.72;;;7.38
29549;BMP280;16487;53.094;8.800;2024-01-30T09:03:58;102484.13;;;7.35
29549;BMP280;16487;53.094;8.800;2024-01-30T09:06:25;102479.63;;;7.42
29549;BMP280;16487;53.094;8.800;2024-01-30T09:08:51;102475.88;;;7.36
29549;BMP280;16487;53.094;8.800;2024-01-30T09:11:18;102478.22;;;7.53
29549;BMP280;16487;53.094;8.800;2024-01-30T09:13:44;102485.84;;;7.62
29549;BMP280;16487;53.094;8.800;2024-01-30T09:16:12;102486.44;;;7.58
29549;BMP280;16487;53.094;8.800;2024-01-30T09:18:39;102499.28;;;7.69
29549;BMP280;16487;53.094;8.800;2024-01-30T09:21:06;102505.69;;;7.75
29549;BMP280;16487;53.094;8.800;2024-01-30T09:23:32;102499.91;;;7.71
29549;BMP280;16487;53.094;8.800;2024-01-30T09:25:59;102500.13;;;7.76
29549;BMP280;16487;53.094;8.800;2024-01-30T09:28:26;102505.06;;;7.66
29549;BMP280;16487;53.094;8.800;2024-01-30T09:30:53;102496.81;;;7.74
29549;BMP280;16487;53.094;8.800;2024-01-30T09:33:21;102486.91;;;7.75
29549;BMP280;16487;53.094;8.800;2024-01-30T09:35:47;102485.06;;;7.89
29549;BMP280;16487;53.094;8.800;2024-01-30T09:38:14;102494.19;;;8.08
29549;BMP280;16487;53.094;8.800;2024-01-30T09:40:41;102497.69;;;8.02
29549;BMP280;16487;53.094;8.800;2024-01-30T09:43:07;102500.94;;;8.37
29549;BMP280;16487;53.094;8.800;2024-01-30T09:45:35;102510.44;;;8.46
29549;BMP280;16487;53.094;8.800;2024-01-30T09:48:01;102497.22;;;8.52
29549;BMP280;16487;53.094;8.800;2024-01-30T09:50:30;102491.84;;;8.52
29549;BMP280;16487;53.094;8.800;2024-01-30T09:52:58;102499.50;;;8.41
29549;BMP280;16487;53.094;8.800;2024-01-30T09:55:26;102509.38;;;8.61
29549;BMP280;16487;53.094;8.800;2024-01-30T09:57:52;102515.75;;;8.80
29549;BMP280;16487;53.094;8.800;2024-01-30T10:00:19;102510.41;;;8.73
29549;BMP280;16487;53.094;8.800;2024-01-30T10:02:46;102498.03;;;8.59
29549;BMP280;16487;53.094;8.800;2024-01-30T10:05:15;102496.75;;;8.68
29549;BMP280;16487;53.094;8.800;2024-01-30T10:07:54;102507.50;;;8.75
29549;BMP280;16487;53.094;8.800;2024-01-30T10:10:23;102501.25;;;8.81
29549;BMP280;16487;53.094;8.800;2024-01-30T10:12:50;102510.25;;;9.07
29549;BMP280;16487;53.094;8.800;2024-01-30T10:15:17;102505.97;;;8.99
29549;BMP280;16487;53.094;8.800;2024-01-30T10:17:44;102504.50;;;9.03
29549;BMP280;16487;53.094;8.800;2024-01-30T10:20:11;102511.91;;;9.08
29549;BMP280;16487;53.094;8.800;2024-01-30T10:22:38;102516.81;;;9.18
29549;BMP280;16487;53.094;8.800;2024-01-30T10:25:07;102511.84;;;9.21
29549;BMP280;16487;53.094;8.800;2024-01-30T10:27:35;102509.56;;;9.25
29549;BMP280;16487;53.094;8.800;2024-01-30T10:30:02;102517.41;;;9.26
29549;BMP280;16487;53.094;8.800;2024-01-30T10:32:29;102513.91;;;9.26
29549;BMP280;16487;53.094;8.800;2024-01-30T10:34:56;102509.84;;;9.48
29549;BMP280;16487;53.094;8.800;2024-01-30T10:37:25;102501.00;;;9.41
29549;BMP280;16487;53.094;8.800;2024-01-30T10:39:53;102506.19;;;9.36
29549;BMP280;16487;53.094;8.800;2024-01-30T10:42:25;102500.81;;;9.68
29549;BMP280;16487;53.094;8.800;2024-01-30T10:44:56;102501.63;;;9.69
29549;BMP280;16487;53.094;8.800;2024-01-30T10:47:26;102513.13;;;9.82
29549;BMP280;16487;53.094;8.800;2024-01-30T10:49:54;102518.09;;;9.86
29549;BMP280;16487;53.094;8.800;2024-01-30T10:52:23;102521.88;;;10.03
29549;BMP280;16487;53.094;8.800;2024-01-30T10:54:50;102527.69;;;10.25
29549;BMP280;16487;53.094;8.800;2024-01-30T10:57:17;102540.50;;;10.30
29549;BMP280;16487;53.094;8.800;2024-01-30T10:59:46;102535.03;;;10.37
29549;BMP280;16487;53.094;8.800;2024-01-30T11:02:13;102524.56;;;10.28
29549;BMP280;16487;53.094;8.800;2024-01-30T11:04:41;102519.63;;;10.25
29549;BMP280;16487;53.094;8.800;2024-01-30T11:07:14;102522.56;;;10.42
29549;BMP280;16487;53.094;8.800;2024-01-30T11:09:48;102511.97;;;10.22
29549;BMP280;16487;53.094;8.800;2024-01-30T11:12:15;102501.78;;;10.24
29549;BMP280;16487;53.094;8.800;2024-01-30T11:14:41;102524.25;;;10.37
29549;BMP280;16487;53.094;8.800;2024-01-30T11:17:10;102515.03;;;10.44
29549;BMP280;16487;53.094;8.800;2024-01-30T11:19:36;102517.94;;;10.49
29549;BMP280;16487;53.094;8.800;2024-01-30T11:22:03;102526.75;;;10.57
29549;BMP280;16487;53.094;8.800;2024-01-30T11:24:39;102510.94;;;10.42
29549;BMP280;16487;53.094;8.800;2024-01-30T11:27:08;102512.75;;;10.48
29549;BMP280;16487;53.094;8.800;2024-01-30T11:29:35;102520.03;;;10.66
29549;BMP280;16487;53.094;8.800;2024-01-30T11:32:01;102524.50;;;10.72
29549;BMP280;16487;53.094;8.800;2024-01-30T11:34:29;102519.50;;;10.76
29549;BMP280;16487;53.094;8.800;2024-01-30T11:36:58;102515.38;;;10.73
29549;BMP280;16487;53.094;8.800;2024-01-30T11:39:26;102513.00;;;10.83
29549;BMP280;16487;53.094;8.800;2024-01-30T11:41:53;102510.41;;;10.89
29549;BMP280;16487;53.094;8.800;2024-01-30T11:44:20;102495.78;;;10.96
29549;BMP280;16487;53.094;8.800;2024-01-30T11:46:47;102496.63;;;10.97
29549;BMP280;16487;53.094;8.800;2024-01-30T11:49:15;102494.97;;;10.96
29549;BMP280;16487;53.094;8.800;2024-01-30T11:51:45;102480.34;;;10.73
29549;BMP280;16487;53.094;8.800;2024-01-30T11:54:12;102480.25;;;10.80
29549;BMP280;16487;53.094;8.800;2024-01-30T11:56:38;102483.16;;;10.78
29549;BMP280;16487;53.094;8.800;2024-01-30T11:59:05;102492.91;;;10.79
29549;BMP280;16487;53.094;8.800;2024-01-30T12:01:31;102477.75;;;10.78
29549;BMP280;16487;53.094;8.800;2024-01-30T12:03:59;102472.47;;;10.72
29549;BMP280;16487;53.094;8.800;2024-01-30T12:06:26;102474.94;;;10.73
29549;BMP280;16487;53.094;8.800;2024-01-30T12:08:58;102480.97;;;10.87
29549;BMP280;16487;53.094;8.800;2024-01-30T12:11:25;102492.97;;;10.91
29549;BMP280;16487;53.094;8.800;2024-01-30T12:13:52;102482.84;;;10.87
29549;BMP280;16487;53.094;8.800;2024-01-30T12:16:19;102484.19;;;10.96
29549;BMP280;16487;53.094;8.800;2024-01-30T12:18:46;102498.03;;;10.99
29549;BMP280;16487;53.094;8.800;2024-01-30T12:21:16;102493.31;;;10.95
29549;BMP280;16487;53.094;8.800;2024-01-30T12:23:42;102500.28;;;11.03
29549;BMP280;16487;53.094;8.800;2024-01-30T12:26:10;102491.09;;;10.92
29549;BMP280;16487;53.094;8.800;2024-01-30T12:28:37;102488.75;;;10.95
29549;BMP280;16487;53.094;8.800;2024-01-30T12:31:13;102485.91;;;10.90
29549;BMP280;16487;53.094;8.800;2024-01-30T12:33:40;102487.59;;;11.03
29549;BMP280;16487;53.094;8.800;2024-01-30T12:36:07;102495.75;;;11.15
29549;BMP280;16487;53.094;8.800;2024-01-30T12:38:33;102498.69;;;11.13
29549;BMP280;16487;53.094;8.800;2024-01-30T12:41:00;102485.59;;;10.98
29549;BMP280;16487;53.094;8.800;2024-01-30T12:43:29;102493.06;;;11.15
29549;BMP280;16487;53.094;8.800;2024-01-30T12:46:04;102483.19;;;11.09
29549;BMP280;16487;53.094;8.800;2024-01-30T12:48:31;102472.56;;;10.95
29549;BMP280;16487;53.094;8.800;2024-01-30T12:50:57;102483.53;;;11.12
29549;BMP280;16487;53.094;8.800;2024-01-30T12:53:24;102472.41;;;11.09
29549;BMP280;16487;53.094;8.800;2024-01-30T12:55:51;102456.47;;;11.07
29549;BMP280;16487;53.094;8.800;2024-01-30T12:58:17;102460.19;;;11.06
29549;BMP280;16487;53.094;8.800;2024-01-30T13:00:45;102452.53;;;11.03
29549;BMP280;16487;53.094;8.800;2024-01-30T13:03:12;102468.53;;;11.16
29549;BMP280;16487;53.094;8.800;2024-01-30T13:05:39;102470.91;;;11.25
29549;BMP280;16487;53.094;8.800;2024-01-30T13:08:06;102464.34;;;11.21
29549;BMP280;16487;53.094;8.800;2024-01-30T13:10:32;102461.63;;;11.21
29549;BMP280;16487;53.094;8.800;2024-01-30T13:12:59;102464.09;;;11.22
29549;BMP280;16487;53.094;8.800;2024-01-30T13:15:26;102463.16;;;11.16
29549;BMP280;16487;53.094;8.800;2024-01-30T13:17:54;102454.81;;;11.18
29549;BMP280;16487;53.094;8.800;2024-01-30T13:20:20;102451.22;;;11.24
29549;BMP280;16487;53.094;8.800;2024-01-30T13:22:47;102444.84;;;11.18
29549;BMP280;16487;53.094;8.800;2024-01-30T13:25:14;102444.41;;;11.22
29549;BMP280;16487;53.094;8.800;2024-01-30T13:27:41;102442.88;;;11.26
29549;BMP280;16487;53.094;8.800;2024-01-30T13:30:08;102443.84;;;11.31
29549;BMP280;16487;53.094;8.800;2024-01-30T13:32:35;102438.88;;;11.28
29549;BMP280;16487;53.094;8.800;2024-01-30T13:35:03;102440.91;;;11.33
29549;BMP280;16487;53.094;8.800;2024-01-30T13:37:30;102440.19;;;11.38
29549;BMP280;16487;53.094;8.800;2024-01-30T13:39:57;102443.38;;;11.34
29549;BMP280;16487;53.094;8.800;2024-01-30T13:42:23;102432.94;;;11.38
29549;BMP280;16487;53.094;8.800;2024-01-30T13:44:50;102430.69;;;11.23
29549;BMP280;16487;53.094;8.800;2024-01-30T13:47:16;102429.28;;;11.32
29549;BMP280;16487;53.094;8.800;2024-01-30T13:49:43;102415.69;;;11.39
29549;BMP280;16487;53.094;8.800;2024-01-30T13:52:11;102431.72;;;11.34
29549;BMP280;16487;53.094;8.800;2024-01-30T13:54:38;102429.19;;;11.39
29549;BMP280;16487;53.094;8.800;2024-01-30T13:57:04;102416.84;;;11.31
29549;BMP280;16487;53.094;8.800;2024-01-30T13:59:31;102414.50;;;11.35
29549;BMP280;16487;53.094;8.800;2024-01-30T14:01:58;102432.59;;;11.58
29549;BMP280;16487;53.094;8.800;2024-01-30T14:04:24;102435.16;;;11.53
29549;BMP280;16487;53.094;8.800;2024-01-30T14:06:51;102437.16;;;11.58
29549;BMP280;16487;53.094;8.800;2024-01-30T14:09:31;102437.66;;;11.55